createdAt,value
2022-12-12T00:18:51.780Z,42.2
2022-12-12T00:38:51.737Z,42.2
2022-12-12T00:58:51.723Z,42.3
2022-12-12T01:18:51.704Z,42.4
2022-12-12T01:38:51.692Z,42.5
2022-12-12T01:58:51.665Z,42.5
2022-12-12T02:18:51.601Z,42.6
2022-12-12T02:38:51.612Z,42.6
2022-12-12T02:58:51.595Z,42.6
2022-12-12T03:18:51.552Z,42.7
2022-12-12T03:38:51.540Z,42.8
2022-12-12T03:58:51.476Z,42.8
2022-12-12T04:18:51.483Z,42.7
2022-12-12T04:38:51.440Z,42.6
2022-12-12T04:58:51.440Z,42.6
2022-12-12T05:18:51.419Z,42.6
2022-12-12T05:38:51.365Z,42.5
2022-12-12T05:58:51.466Z,42.4
2022-12-12T06:18:51.363Z,42.2
2022-12-12T06:38:51.368Z,42.2
2022-12-12T06:58:51.285Z,42.2
2022-12-12T07:18:51.275Z,42.2
2022-12-12T07:38:51.253Z,42.2
2022-12-12T07:58:51.236Z,42.1
2022-12-12T08:18:51.173Z,42.2
2022-12-12T08:38:51.194Z,42.2
2022-12-12T08:58:51.112Z,42.2
2022-12-12T09:18:51.117Z,42.2
2022-12-12T09:38:51.063Z,42.1
2022-12-12T09:58:51.074Z,42.0
2022-12-12T10:18:51.017Z,42.0
2022-12-12T10:38:51.082Z,42.0
2022-12-12T10:58:51.009Z,41.9
2022-12-12T11:18:50.995Z,41.9
2022-12-12T11:38:50.927Z,41.9
2022-12-12T11:58:51.048Z,42.0
2022-12-12T12:18:50.897Z,42.0
2022-12-12T12:38:50.859Z,42.1
2022-12-12T12:58:50.847Z,42.2
2022-12-12T13:18:50.932Z,42.5
2022-12-12T13:38:50.771Z,42.5
2022-12-12T13:58:50.804Z,42.4
2022-12-12T14:18:50.731Z,42.5
2022-12-12T14:38:50.728Z,42.5
2022-12-12T14:58:50.775Z,42.5
2022-12-12T15:18:50.658Z,42.5
2022-12-12T15:38:50.667Z,42.5
2022-12-12T15:58:50.683Z,42.5
2022-12-12T16:18:50.636Z,42.6
2022-12-12T16:38:50.557Z,42.5
2022-12-12T16:58:50.551Z,42.5
2022-12-12T17:18:50.496Z,42.5
2022-12-12T17:38:50.561Z,42.5
2022-12-12T17:58:50.482Z,42.5
2022-12-12T18:18:50.496Z,42.4
2022-12-12T18:38:50.450Z,42.4
2022-12-12T18:58:50.384Z,42.4
2022-12-12T19:18:50.370Z,42.4
2022-12-12T19:38:50.317Z,42.2
2022-12-12T19:58:50.346Z,41.5
2022-12-12T20:18:50.295Z,41.5
2022-12-12T20:38:50.265Z,41.6
2022-12-12T20:58:50.296Z,41.5
2022-12-12T21:18:50.274Z,41.5
2022-12-12T21:38:50.200Z,41.5
2022-12-12T21:58:50.173Z,41.2
2022-12-12T22:18:50.135Z,41.3
2022-12-12T22:38:50.151Z,41.4
2022-12-12T22:58:50.084Z,41.4
2022-12-12T23:18:50.090Z,41.3
2022-12-12T23:38:50.046Z,41.5
2022-12-12T23:58:50.065Z,41.5
